Time;durP1;ratioP1;P1;durP2;ratioP2;P2;SDS_P1;SDS_P2;PMS_P1;PMS_P2;Temp;Humidity;BMP_temperature;BMP_pressure;BME280_temperature;BME280_humidity;BME280_pressure;Samples;Min_cycle;Max_cycle;Signal;HPM_P1;HPM_P2
2023/04/12 00:01:09;;;;;;;6.93;2.50;;;;;;;;;;5055076;28;20613;-72
2023/04/12 00:03:54;;;;;;;9.38;2.65;;;;;;;;;;5059855;28;20044;-72
2023/04/12 00:06:40;;;;;;;7.18;2.22;;;;;;;;;;5055383;28;20048;-72
2023/04/12 00:09:29;;;;;;;7.80;2.83;;;;;;;;;;5060473;28;20108;-72
2023/04/12 00:12:16;;;;;;;7.88;2.95;;;;;;;;;;5059917;28;20033;-72
2023/04/12 00:15:01;;;;;;;5.90;1.90;;;;;;;;;;5058679;28;20533;-72
2023/04/12 00:17:47;;;;;;;6.90;1.77;;;;;;;;;;5060598;28;20040;-75
2023/04/12 00:20:32;;;;;;;6.22;2.40;;;;;;;;;;5062404;28;20025;-68
2023/04/12 00:23:17;;;;;;;5.53;2.00;;;;;;;;;;5054995;28;20118;-69
2023/04/12 00:26:03;;;;;;;7.15;2.25;;;;;;;;;;5052403;28;20054;-72
2023/04/12 00:28:48;;;;;;;6.85;2.42;;;;;;;;;;5053782;28;20028;-69
2023/04/12 00:31:33;;;;;;;8.23;2.25;;;;;;;;;;5061433;28;20047;-74
2023/04/12 00:34:19;;;;;;;5.30;1.88;;;;;;;;;;5058032;28;20017;-73
2023/04/12 00:37:04;;;;;;;8.52;2.60;;;;;;;;;;5055721;28;20031;-74
2023/04/12 00:39:49;;;;;;;5.40;2.00;;;;;;;;;;5062985;28;20395;-71
2023/04/12 00:42:35;;;;;;;8.88;2.88;;;;;;;;;;5060119;28;20025;-72
2023/04/12 00:45:20;;;;;;;6.88;2.50;;;;;;;;;;5055412;28;20032;-74
2023/04/12 00:48:06;;;;;;;7.85;2.67;;;;;;;;;;5059310;28;20468;-72
2023/04/12 00:50:54;;;;;;;5.90;2.03;;;;;;;;;;5061327;28;20060;-72
2023/04/12 00:53:40;;;;;;;6.13;3.35;;;;;;;;;;5054061;28;20028;-75
2023/04/12 00:56:27;;;;;;;3.75;1.67;;;;;;;;;;5060582;28;20076;-75
2023/04/12 00:59:12;;;;;;;4.72;1.70;;;;;;;;;;5056848;28;20043;-74
2023/04/12 01:01:58;;;;;;;4.65;2.03;;;;;;;;;;5058758;28;20028;-75
2023/04/12 01:04:44;;;;;;;4.85;1.92;;;;;;;;;;5048373;28;20028;-75
2023/04/12 01:07:50;;;;;;;4.35;2.00;;;;;;;;;;5066033;28;20056;-81
2023/04/12 01:10:48;;;;;;;7.57;2.10;;;;;;;;;;5065569;28;20119;-73
2023/04/12 01:13:33;;;;;;;8.32;2.38;;;;;;;;;;5058489;28;20043;-75
2023/04/12 01:16:34;;;;;;;7.78;2.58;;;;;;;;;;5054490;28;20021;-74
2023/04/12 01:19:35;;;;;;;4.72;2.00;;;;;;;;;;5060192;28;20428;-74
2023/04/12 01:22:36;;;;;;;4.63;1.95;;;;;;;;;;5061351;28;20383;-74
2023/04/12 01:25:40;;;;;;;7.50;2.60;;;;;;;;;;5067379;28;20074;-75
2023/04/12 01:28:27;;;;;;;6.47;2.40;;;;;;;;;;5057845;28;20029;-73
2023/04/12 01:31:13;;;;;;;5.63;2.17;;;;;;;;;;5059603;28;20033;-72
2023/04/12 01:34:00;;;;;;;7.68;1.90;;;;;;;;;;5057501;28;20537;-72
2023/04/12 01:36:46;;;;;;;8.85;2.05;;;;;;;;;;5006829;28;20095;-74
2023/04/12 01:39:32;;;;;;;5.22;1.80;;;;;;;;;;5005600;28;20036;-73
2023/04/12 01:42:18;;;;;;;11.32;2.75;;;;;;;;;;5011561;28;20519;-72
2023/04/12 01:45:03;;;;;;;5.47;2.80;;;;;;;;;;5010280;28;20045;-80
2023/04/12 01:47:49;;;;;;;4.47;2.28;;;;;;;;;;5006636;28;20032;-78
2023/04/12 01:50:37;;;;;;;5.45;3.00;;;;;;;;;;5012770;28;20039;-79
2023/04/12 01:53:27;;;;;;;4.78;2.05;;;;;;;;;;5002361;28;20117;-77
2023/04/12 01:56:14;;;;;;;5.45;2.03;;;;;;;;;;4994175;28;20034;-78
2023/04/12 01:58:59;;;;;;;6.15;1.98;;;;;;;;;;5013749;28;21707;-78
2023/04/12 02:01:45;;;;;;;6.60;2.25;;;;;;;;;;5011747;28;20055;-78
2023/04/12 02:04:31;;;;;;;5.70;2.53;;;;;;;;;;5010384;28;20033;-78
2023/04/12 02:07:17;;;;;;;5.45;2.47;;;;;;;;;;5031510;28;20116;-79
2023/04/12 02:10:03;;;;;;;7.80;2.42;;;;;;;;;;5053754;28;20068;-79
2023/04/12 02:12:48;;;;;;;7.22;2.67;;;;;;;;;;5056094;28;20027;-79
2023/04/12 02:15:33;;;;;;;4.75;2.13;;;;;;;;;;5064083;28;20472;-78
2023/04/12 02:18:19;;;;;;;9.88;2.17;;;;;;;;;;5057925;28;20024;-77
2023/04/12 02:21:05;;;;;;;6.68;2.05;;;;;;;;;;5062830;28;20059;-73
2023/04/12 02:23:50;;;;;;;7.97;2.88;;;;;;;;;;5061456;28;20033;-71
2023/04/12 02:26:36;;;;;;;4.85;2.42;;;;;;;;;;5055853;28;20124;-72
2023/04/12 02:29:21;;;;;;;4.55;2.00;;;;;;;;;;5061569;28;20156;-71
2023/04/12 02:32:06;;;;;;;8.65;2.92;;;;;;;;;;5052273;28;20487;-73
2023/04/12 02:34:51;;;;;;;4.00;2.13;;;;;;;;;;5059248;28;20033;-74
2023/04/12 02:37:37;;;;;;;4.65;1.85;;;;;;;;;;5056474;28;20152;-75
2023/04/12 02:40:22;;;;;;;8.05;2.63;;;;;;;;;;5061181;28;20032;-75
2023/04/12 02:43:08;;;;;;;10.80;2.50;;;;;;;;;;5054538;28;20472;-77
2023/04/12 02:45:53;;;;;;;3.97;1.85;;;;;;;;;;5066477;28;20040;-76
2023/04/12 02:48:38;;;;;;;6.03;2.30;;;;;;;;;;5063530;28;20495;-75
2023/04/12 02:51:23;;;;;;;4.90;1.92;;;;;;;;;;5049562;28;20025;-75
2023/04/12 02:54:09;;;;;;;5.13;1.88;;;;;;;;;;5063808;28;20094;-75
2023/04/12 02:56:54;;;;;;;5.00;2.10;;;;;;;;;;5064733;28;20024;-75
2023/04/12 02:59:40;;;;;;;7.50;2.33;;;;;;;;;;5059853;28;20561;-73
2023/04/12 03:02:25;;;;;;;3.75;1.85;;;;;;;;;;5058986;28;20029;-75
2023/04/12 03:05:11;;;;;;;5.10;2.05;;;;;;;;;;5060185;28;20519;-71
2023/04/12 03:07:56;;;;;;;5.20;1.90;;;;;;;;;;5061737;28;20040;-73
2023/04/12 03:10:41;;;;;;;9.07;2.75;;;;;;;;;;5059877;28;20032;-73
2023/04/12 03:13:26;;;;;;;7.00;2.33;;;;;;;;;;5058731;28;20020;-73
2023/04/12 03:16:19;;;;;;;6.90;2.60;;;;;;;;;;5061627;28;20024;-75
2023/04/12 03:19:05;;;;;;;5.22;2.45;;;;;;;;;;5063678;28;20032;-78
2023/04/12 03:21:50;;;;;;;5.07;1.90;;;;;;;;;;5055699;28;20028;-76
2023/04/12 03:24:36;;;;;;;5.35;2.00;;;;;;;;;;5055665;28;20068;-75
2023/04/12 03:27:21;;;;;;;6.28;2.35;;;;;;;;;;5041421;28;20040;-78
2023/04/12 03:30:06;;;;;;;4.25;2.00;;;;;;;;;;5045614;28;20127;-76
2023/04/12 03:32:51;;;;;;;4.45;2.00;;;;;;;;;;5041975;28;20048;-76
2023/04/12 03:35:37;;;;;;;5.07;2.20;;;;;;;;;;5060081;28;20036;-70
2023/04/12 03:38:22;;;;;;;4.28;2.10;;;;;;;;;;5051400;28;20475;-72
2023/04/12 03:41:07;;;;;;;6.13;2.15;;;;;;;;;;5064808;28;20024;-73
2023/04/12 03:43:52;;;;;;;6.88;2.00;;;;;;;;;;5066258;28;20635;-73
2023/04/12 03:46:38;;;;;;;5.47;2.22;;;;;;;;;;5067852;28;20045;-73
2023/04/12 03:49:23;;;;;;;3.65;1.75;;;;;;;;;;5061762;28;20114;-76
2023/04/12 03:52:08;;;;;;;5.32;2.33;;;;;;;;;;5069319;28;20062;-73
2023/04/12 03:54:54;;;;;;;5.03;2.55;;;;;;;;;;5054254;28;20083;-72
2023/04/12 03:57:40;;;;;;;6.18;2.47;;;;;;;;;;5056352;28;20385;-68
2023/04/12 04:00:26;;;;;;;3.92;2.40;;;;;;;;;;5056011;28;20043;-70
2023/04/12 04:03:11;;;;;;;7.32;2.20;;;;;;;;;;5066188;28;20348;-68
2023/04/12 04:05:56;;;;;;;7.40;3.00;;;;;;;;;;5063579;28;20044;-69
2023/04/12 04:08:43;;;;;;;5.20;2.50;;;;;;;;;;5052535;28;20045;-69
2023/04/12 04:11:29;;;;;;;5.10;2.20;;;;;;;;;;5055882;28;20039;-79
2023/04/12 04:14:15;;;;;;;8.18;2.67;;;;;;;;;;5068678;28;20059;-77
2023/04/12 04:17:00;;;;;;;7.22;3.33;;;;;;;;;;5067887;28;20043;-76
2023/04/12 04:19:45;;;;;;;4.60;2.20;;;;;;;;;;5064079;28;20025;-80
2023/04/12 04:22:31;;;;;;;6.03;2.17;;;;;;;;;;5052149;28;20032;-78
2023/04/12 04:25:16;;;;;;;5.32;2.17;;;;;;;;;;5053304;28;20044;-80
2023/04/12 04:28:01;;;;;;;9.18;3.10;;;;;;;;;;5065812;28;20540;-78
2023/04/12 04:30:47;;;;;;;6.78;2.42;;;;;;;;;;5055538;28;20048;-76
2023/04/12 04:33:32;;;;;;;5.97;2.30;;;;;;;;;;5066821;28;20078;-73
2023/04/12 04:36:17;;;;;;;7.82;2.55;;;;;;;;;;5053297;28;20047;-74
2023/04/12 04:39:03;;;;;;;9.15;2.55;;;;;;;;;;5054884;28;20487;-74
2023/04/12 04:41:53;;;;;;;6.25;2.53;;;;;;;;;;5042600;28;20025;-73
2023/04/12 04:44:38;;;;;;;8.60;3.03;;;;;;;;;;5066126;28;20024;-73
2023/04/12 04:47:24;;;;;;;5.30;2.85;;;;;;;;;;5067423;28;20032;-74
2023/04/12 04:50:09;;;;;;;8.18;3.10;;;;;;;;;;5055881;28;20045;-79
2023/04/12 04:52:54;;;;;;;11.23;3.83;;;;;;;;;;5062850;28;20028;-77
2023/04/12 04:55:40;;;;;;;8.48;2.88;;;;;;;;;;5053507;28;20475;-75
2023/04/12 04:58:25;;;;;;;4.93;2.90;;;;;;;;;;5050710;28;20416;-78
2023/04/12 05:01:12;;;;;;;6.00;3.38;;;;;;;;;;5047178;28;20067;-76
2023/04/12 05:03:57;;;;;;;4.72;2.60;;;;;;;;;;5047674;28;20075;-75
2023/04/12 05:06:42;;;;;;;5.15;3.03;;;;;;;;;;5055241;28;20080;-73
2023/04/12 05:09:28;;;;;;;5.35;2.88;;;;;;;;;;5059795;28;20052;-78
2023/04/12 05:12:13;;;;;;;8.50;3.53;;;;;;;;;;5040485;28;20035;-79
2023/04/12 05:14:58;;;;;;;9.68;3.33;;;;;;;;;;5051232;28;20052;-78
2023/04/12 05:17:43;;;;;;;8.65;3.22;;;;;;;;;;5049944;28;20043;-79
2023/04/12 05:20:29;;;;;;;5.80;2.50;;;;;;;;;;5050182;28;20014;-78
2023/04/12 05:23:14;;;;;;;5.90;3.00;;;;;;;;;;5055290;28;20475;-79
2023/04/12 05:25:59;;;;;;;9.93;3.95;;;;;;;;;;5051451;28;20499;-76
2023/04/12 05:28:45;;;;;;;6.30;3.25;;;;;;;;;;5049294;28;20032;-75
2023/04/12 05:31:31;;;;;;;4.80;3.00;;;;;;;;;;5049358;28;20021;-73
2023/04/12 05:34:16;;;;;;;7.43;3.78;;;;;;;;;;5052875;28;20040;-74
2023/04/12 05:37:02;;;;;;;4.97;2.40;;;;;;;;;;5033227;28;20032;-75
2023/04/12 05:39:48;;;;;;;8.70;2.75;;;;;;;;;;5047415;28;20052;-73
2023/04/12 05:42:33;;;;;;;7.70;4.10;;;;;;;;;;5036684;28;20104;-75
2023/04/12 05:45:18;;;;;;;5.63;3.25;;;;;;;;;;5050715;28;20480;-76
2023/04/12 05:48:03;;;;;;;5.53;3.05;;;;;;;;;;5054637;28;20025;-74
2023/04/12 05:50:52;;;;;;;6.20;2.95;;;;;;;;;;5061585;28;20033;-74
2023/04/12 05:53:37;;;;;;;4.50;2.92;;;;;;;;;;5059628;28;20111;-74
2023/04/12 05:56:23;;;;;;;4.00;2.83;;;;;;;;;;5054343;28;20391;-75
2023/04/12 05:59:10;;;;;;;5.82;3.08;;;;;;;;;;5047760;28;20064;-73
2023/04/12 06:01:55;;;;;;;6.85;3.50;;;;;;;;;;5047625;28;20105;-73
2023/04/12 06:04:41;;;;;;;4.70;2.95;;;;;;;;;;5047754;28;20029;-80
2023/04/12 06:07:26;;;;;;;7.50;3.38;;;;;;;;;;5046904;28;20056;-78
2023/04/12 06:10:12;;;;;;;7.65;3.58;;;;;;;;;;5050374;28;20521;-79
2023/04/12 06:12:57;;;;;;;7.13;3.47;;;;;;;;;;5060920;28;20129;-79
2023/04/12 06:15:43;;;;;;;5.85;3.08;;;;;;;;;;5064067;28;20131;-81
2023/04/12 06:18:28;;;;;;;5.40;2.80;;;;;;;;;;5050491;28;20025;-82
2023/04/12 06:21:14;;;;;;;5.68;2.45;;;;;;;;;;5059705;28;20082;-76
2023/04/12 06:23:59;;;;;;;4.70;2.47;;;;;;;;;;5053106;28;20056;-79
2023/04/12 06:26:46;;;;;;;5.93;2.78;;;;;;;;;;5040147;28;20124;-78
2023/04/12 06:29:31;;;;;;;5.22;2.92;;;;;;;;;;5053894;28;20068;-79
2023/04/12 06:32:17;;;;;;;3.63;2.10;;;;;;;;;;5050387;28;20078;-78
2023/04/12 06:35:02;;;;;;;7.43;2.50;;;;;;;;;;5065921;28;20107;-79
2023/04/12 06:37:48;;;;;;;7.65;3.10;;;;;;;;;;5070034;28;20031;-81
2023/04/12 06:40:33;;;;;;;4.78;2.50;;;;;;;;;;5054859;28;20024;-80
2023/04/12 06:43:19;;;;;;;6.32;2.88;;;;;;;;;;5069192;28;20039;-70
2023/04/12 06:46:04;;;;;;;7.03;2.20;;;;;;;;;;5065899;28;20051;-70
2023/04/12 06:48:50;;;;;;;4.63;2.25;;;;;;;;;;5053589;28;20074;-68
2023/04/12 06:51:35;;;;;;;5.72;2.78;;;;;;;;;;5062441;28;20032;-70
2023/04/12 06:54:20;;;;;;;5.25;2.58;;;;;;;;;;5059051;28;20056;-71
2023/04/12 06:57:12;;;;;;;4.43;1.77;;;;;;;;;;5056146;28;20436;-79
2023/04/12 06:59:57;;;;;;;3.80;1.80;;;;;;;;;;5070681;28;20020;-75
2023/04/12 07:02:42;;;;;;;3.10;1.80;;;;;;;;;;5070645;28;20054;-76
2023/04/12 07:05:28;;;;;;;8.82;3.35;;;;;;;;;;5070397;28;20037;-77
2023/04/12 07:08:13;;;;;;;8.15;3.90;;;;;;;;;;5063697;28;20486;-77
2023/04/12 07:10:58;;;;;;;5.97;3.05;;;;;;;;;;5067714;28;20055;-77
2023/04/12 07:13:43;;;;;;;7.25;2.88;;;;;;;;;;5069039;28;20113;-76
2023/04/12 07:16:30;;;;;;;5.60;2.38;;;;;;;;;;5062817;28;20494;-75
2023/04/12 07:19:15;;;;;;;7.18;2.40;;;;;;;;;;5068463;28;20032;-79
2023/04/12 07:22:00;;;;;;;6.53;2.65;;;;;;;;;;5068475;28;20408;-79
2023/04/12 07:24:45;;;;;;;5.57;2.53;;;;;;;;;;5058453;28;20031;-80
2023/04/12 07:27:31;;;;;;;6.85;2.45;;;;;;;;;;5069030;28;20094;-81
2023/04/12 07:30:16;;;;;;;4.25;2.47;;;;;;;;;;5057791;28;20441;-81
2023/04/12 07:33:04;;;;;;;5.05;2.97;;;;;;;;;;5068845;28;20440;-81
2023/04/12 07:35:49;;;;;;;6.57;2.83;;;;;;;;;;5069615;28;20029;-72
2023/04/12 07:38:35;;;;;;;5.68;2.50;;;;;;;;;;5067628;28;20032;-72
2023/04/12 07:41:20;;;;;;;3.97;2.22;;;;;;;;;;5069421;28;20036;-71
2023/04/12 07:44:06;;;;;;;3.35;2.20;;;;;;;;;;5068141;28;20028;-73
2023/04/12 07:46:51;;;;;;;2.95;1.65;;;;;;;;;;5068834;28;20510;-72
2023/04/12 07:49:36;;;;;;;2.83;1.67;;;;;;;;;;5060315;28;20032;-72
2023/04/12 07:52:21;;;;;;;3.30;1.88;;;;;;;;;;5051208;28;20320;-80
2023/04/12 07:55:08;;;;;;;5.10;2.15;;;;;;;;;;5062219;28;20016;-72
2023/04/12 07:57:54;;;;;;;2.60;1.65;;;;;;;;;;5069119;28;20329;-72
2023/04/12 08:00:39;;;;;;;2.55;1.38;;;;;;;;;;5067659;28;20115;-72
2023/04/12 08:03:24;;;;;;;3.25;1.67;;;;;;;;;;5068827;28;20495;-73
2023/04/12 08:06:10;;;;;;;3.47;1.63;;;;;;;;;;5068539;28;20036;-73
2023/04/12 08:08:55;;;;;;;2.72;1.80;;;;;;;;;;5062786;28;20036;-72
2023/04/12 08:11:41;;;;;;;3.03;1.60;;;;;;;;;;5068551;28;20027;-73
2023/04/12 08:14:26;;;;;;;2.80;1.48;;;;;;;;;;5067386;28;20039;-75
2023/04/12 08:17:11;;;;;;;4.63;1.40;;;;;;;;;;5061677;28;20039;-74
2023/04/12 08:19:56;;;;;;;2.25;1.60;;;;;;;;;;5068671;28;20024;-74
2023/04/12 08:22:42;;;;;;;3.13;1.60;;;;;;;;;;5067696;28;20094;-74
2023/04/12 08:25:27;;;;;;;2.35;1.45;;;;;;;;;;5062446;28;20468;-76
2023/04/12 08:28:12;;;;;;;4.20;2.35;;;;;;;;;;5068594;28;20106;-75
2023/04/12 08:30:58;;;;;;;3.10;1.85;;;;;;;;;;5066723;28;20035;-82
2023/04/12 08:33:43;;;;;;;5.68;2.30;;;;;;;;;;5054430;28;20036;-81
2023/04/12 08:36:28;;;;;;;4.10;2.35;;;;;;;;;;5061982;28;20375;-79
2023/04/12 08:39:14;;;;;;;3.80;1.67;;;;;;;;;;5068296;28;20059;-81
2023/04/12 08:41:59;;;;;;;5.00;2.33;;;;;;;;;;5067608;28;20212;-80
2023/04/12 08:44:44;;;;;;;1.92;1.45;;;;;;;;;;5061882;28;20444;-80
2023/04/12 08:47:31;;;;;;;2.85;1.80;;;;;;;;;;5053959;28;20029;-76
2023/04/12 08:50:17;;;;;;;3.42;1.60;;;;;;;;;;5054396;28;20437;-74
2023/04/12 08:53:02;;;;;;;3.10;1.73;;;;;;;;;;5062316;28;20021;-77
2023/04/12 08:55:47;;;;;;;5.78;1.88;;;;;;;;;;5064340;28;20439;-73
2023/04/12 08:58:33;;;;;;;3.03;2.03;;;;;;;;;;5068420;28;20039;-74
2023/04/12 09:01:19;;;;;;;4.47;1.90;;;;;;;;;;5066634;28;20139;-74
2023/04/12 09:04:05;;;;;;;6.78;2.38;;;;;;;;;;5067563;28;20059;-75
2023/04/12 09:06:50;;;;;;;4.10;1.67;;;;;;;;;;5067485;28;20052;-73
2023/04/12 09:09:39;;;;;;;3.92;1.60;;;;;;;;;;5065256;28;20319;-82
2023/04/12 09:12:26;;;;;;;4.55;1.83;;;;;;;;;;5068305;28;20122;-80
2023/04/12 09:15:12;;;;;;;5.43;1.92;;;;;;;;;;5067081;28;20036;-81
2023/04/12 09:18:08;;;;;;;2.95;1.40;;;;;;;;;;5067063;28;20021;-80
2023/04/12 09:21:07;;;;;;;3.00;1.80;;;;;;;;;;5060610;28;20025;-81
2023/04/12 09:24:08;;;;;;;4.43;1.90;;;;;;;;;;5060013;28;20116;-74
2023/04/12 09:27:04;;;;;;;3.97;2.03;;;;;;;;;;5056419;28;20052;-73
2023/04/12 09:29:50;;;;;;;5.13;1.73;;;;;;;;;;5050672;28;20047;-72
2023/04/12 09:32:35;;;;;;;2.80;1.50;;;;;;;;;;5068215;28;20115;-74
2023/04/12 09:35:36;;;;;;;4.43;2.17;;;;;;;;;;5067888;28;20086;-72
2023/04/12 09:38:21;;;;;;;3.22;1.77;;;;;;;;;;5067858;28;20032;-72
2023/04/12 09:41:21;;;;;;;4.95;1.58;;;;;;;;;;5064110;28;20021;-73
2023/04/12 09:44:06;;;;;;;2.45;1.67;;;;;;;;;;5068158;28;20074;-74
2023/04/12 09:46:52;;;;;;;1.85;1.60;;;;;;;;;;5069942;28;20123;-72
2023/04/12 09:49:41;;;;;;;5.28;1.55;;;;;;;;;;5062284;28;20032;-74
2023/04/12 09:52:33;;;;;;;8.30;1.77;;;;;;;;;;5068159;28;20423;-75
2023/04/12 09:55:20;;;;;;;3.53;1.38;;;;;;;;;;5066155;28;20033;-73
2023/04/12 09:58:05;;;;;;;5.18;1.77;;;;;;;;;;5071209;28;20383;-75
2023/04/12 10:00:51;;;;;;;4.35;1.80;;;;;;;;;;5070335;28;20024;-81
2023/04/12 10:03:37;;;;;;;3.95;2.40;;;;;;;;;;5072060;28;20024;-79
2023/04/12 10:06:23;;;;;;;4.28;1.90;;;;;;;;;;5071202;28;20056;-80
2023/04/12 10:09:09;;;;;;;6.95;1.83;;;;;;;;;;5066114;28;20480;-80
2023/04/12 10:11:54;;;;;;;6.28;2.28;;;;;;;;;;5066098;28;20033;-81
2023/04/12 10:14:40;;;;;;;4.10;1.60;;;;;;;;;;5071345;28;20036;-79
2023/04/12 10:17:26;;;;;;;3.13;1.30;;;;;;;;;;5069569;28;20111;-79
2023/04/12 10:20:12;;;;;;;5.75;2.20;;;;;;;;;;5071112;28;20131;-71
2023/04/12 10:23:00;;;;;;;5.82;1.50;;;;;;;;;;5066686;28;20021;-74
2023/04/12 10:25:47;;;;;;;6.05;1.92;;;;;;;;;;5064833;28;20112;-72
2023/04/12 10:28:32;;;;;;;4.70;1.73;;;;;;;;;;5066996;28;20109;-74
2023/04/12 10:31:28;;;;;;;7.15;1.70;;;;;;;;;;5064014;28;20435;-74
2023/04/12 10:34:14;;;;;;;6.70;1.63;;;;;;;;;;5059322;28;20040;-74
2023/04/12 10:37:00;;;;;;;3.15;1.75;;;;;;;;;;5070720;28;20020;-74
2023/04/12 10:39:52;;;;;;;2.35;1.50;;;;;;;;;;5070111;28;20562;-73
2023/04/12 10:42:37;;;;;;;3.85;1.67;;;;;;;;;;5059907;28;20585;-72
2023/04/12 10:45:22;;;;;;;6.25;2.47;;;;;;;;;;5070434;28;20036;-73
2023/04/12 10:48:27;;;;;;;3.85;1.52;;;;;;;;;;5062083;28;20028;-72
2023/04/12 10:51:33;;;;;;;2.88;1.75;;;;;;;;;;5058073;28;20016;-72
2023/04/12 10:54:19;;;;;;;3.58;2.40;;;;;;;;;;5066878;28;20032;-70
2023/04/12 10:57:05;;;;;;;3.85;1.70;;;;;;;;;;5069292;28;20012;-69
2023/04/12 10:59:55;;;;;;;3.83;1.88;;;;;;;;;;5070406;28;20036;-73
2023/04/12 11:03:00;;;;;;;4.07;1.50;;;;;;;;;;5068847;28;20024;-73
2023/04/12 11:05:59;;;;;;;7.35;2.47;;;;;;;;;;5069888;28;20028;-73
2023/04/12 11:08:45;;;;;;;4.47;1.73;;;;;;;;;;5065304;28;20053;-74
2023/04/12 11:11:32;;;;;;;5.47;1.73;;;;;;;;;;5056897;28;20044;-73
2023/04/12 11:14:22;;;;;;;4.18;1.60;;;;;;;;;;5070065;28;20029;-78
2023/04/12 11:17:08;;;;;;;5.00;1.20;;;;;;;;;;5068036;28;20112;-77
2023/04/12 11:19:54;;;;;;;2.97;1.40;;;;;;;;;;5036699;28;20089;-77
2023/04/12 11:22:39;;;;;;;5.20;1.85;;;;;;;;;;5051570;28;20033;-75
2023/04/12 11:25:25;;;;;;;3.28;1.50;;;;;;;;;;5040450;28;20079;-77
2023/04/12 11:28:15;;;;;;;3.85;1.30;;;;;;;;;;5055403;28;20535;-78
2023/04/12 11:31:01;;;;;;;2.75;1.25;;;;;;;;;;5059343;28;20036;-77
2023/04/12 11:33:47;;;;;;;2.70;1.13;;;;;;;;;;5069390;28;20051;-79
2023/04/12 11:36:32;;;;;;;2.13;1.00;;;;;;;;;;5068527;28;20104;-70
2023/04/12 11:39:18;;;;;;;1.67;1.00;;;;;;;;;;5058402;28;20122;-72
2023/04/12 11:42:03;;;;;;;1.23;1.13;;;;;;;;;;5068958;28;20464;-74
2023/04/12 11:44:49;;;;;;;3.00;1.23;;;;;;;;;;5069374;28;20492;-70
2023/04/12 11:47:40;;;;;;;2.55;1.13;;;;;;;;;;5055018;28;20093;-71
2023/04/12 11:50:29;;;;;;;2.45;1.10;;;;;;;;;;5067217;28;20040;-72
2023/04/12 11:53:16;;;;;;;3.00;1.10;;;;;;;;;;5061779;28;20024;-74
2023/04/12 11:56:01;;;;;;;1.55;1.02;;;;;;;;;;5055346;28;20487;-73
2023/04/12 11:58:47;;;;;;;1.90;1.10;;;;;;;;;;5065639;28;20098;-75
2023/04/12 12:01:36;;;;;;;2.85;1.20;;;;;;;;;;5069272;28;20017;-73
2023/04/12 12:04:21;;;;;;;1.38;1.10;;;;;;;;;;5068970;28;20097;-73
2023/04/12 12:07:07;;;;;;;1.08;0.93;;;;;;;;;;5068560;28;20611;-75
2023/04/12 12:09:52;;;;;;;5.20;1.08;;;;;;;;;;5062646;28;20521;-70
2023/04/12 12:12:38;;;;;;;3.55;1.52;;;;;;;;;;5068730;28;20020;-77
2023/04/12 12:15:23;;;;;;;2.70;1.35;;;;;;;;;;5068723;28;20487;-78
2023/04/12 12:18:08;;;;;;;2.28;0.93;;;;;;;;;;5054730;28;20035;-78
2023/04/12 12:20:54;;;;;;;1.35;1.00;;;;;;;;;;5068627;28;20028;-77
2023/04/12 12:23:43;;;;;;;3.15;0.82;;;;;;;;;;5052147;28;20037;-76
2023/04/12 12:26:29;;;;;;;1.97;1.17;;;;;;;;;;5067357;28;20044;-75
2023/04/12 12:29:18;;;;;;;2.10;1.00;;;;;;;;;;5048785;28;20110;-77
2023/04/12 12:32:13;;;;;;;2.63;1.25;;;;;;;;;;5052747;28;20480;-74
2023/04/12 12:34:59;;;;;;;1.92;1.05;;;;;;;;;;5068576;28;20067;-73
2023/04/12 12:37:49;;;;;;;1.85;1.15;;;;;;;;;;5068726;28;20479;-73
2023/04/12 12:40:34;;;;;;;1.95;0.95;;;;;;;;;;5068233;28;20464;-73
2023/04/12 12:43:20;;;;;;;0.93;0.70;;;;;;;;;;5066759;28;20042;-73
2023/04/12 12:46:05;;;;;;;2.33;1.10;;;;;;;;;;5068354;28;20162;-74
2023/04/12 12:48:50;;;;;;;2.05;0.88;;;;;;;;;;5065407;28;20025;-76
2023/04/12 12:51:35;;;;;;;2.35;0.95;;;;;;;;;;5062851;28;20021;-73
2023/04/12 12:54:21;;;;;;;0.93;0.70;;;;;;;;;;5054457;28;20043;-75
2023/04/12 12:57:06;;;;;;;3.00;1.15;;;;;;;;;;5068374;28;20028;-75
2023/04/12 12:59:51;;;;;;;1.92;1.38;;;;;;;;;;5068466;28;20089;-76
2023/04/12 13:02:37;;;;;;;1.52;0.82;;;;;;;;;;5066898;28;20123;-75
2023/04/12 13:05:22;;;;;;;1.70;1.00;;;;;;;;;;5068238;28;20505;-75
2023/04/12 13:08:07;;;;;;;3.95;1.80;;;;;;;;;;5061768;28;20152;-73
2023/04/12 13:10:54;;;;;;;3.17;1.42;;;;;;;;;;5068301;28;20066;-74
2023/04/12 13:13:39;;;;;;;2.45;1.10;;;;;;;;;;5068269;28;20093;-72
2023/04/12 13:16:25;;;;;;;1.40;1.05;;;;;;;;;;5054350;28;20101;-73
2023/04/12 13:19:10;;;;;;;1.83;1.15;;;;;;;;;;5065627;28;20096;-72
2023/04/12 13:21:55;;;;;;;1.38;1.10;;;;;;;;;;5072343;28;20074;-74
2023/04/12 13:24:41;;;;;;;2.55;1.00;;;;;;;;;;5060168;28;20021;-80
2023/04/12 13:27:26;;;;;;;4.53;1.27;;;;;;;;;;5071049;28;20028;-81
2023/04/12 13:30:11;;;;;;;1.23;0.70;;;;;;;;;;5056358;28;20158;-79
2023/04/12 13:32:57;;;;;;;3.85;1.33;;;;;;;;;;5049391;28;20028;-79
2023/04/12 13:35:44;;;;;;;5.13;1.58;;;;;;;;;;5059352;28;20548;-80
2023/04/12 13:38:29;;;;;;;2.50;1.10;;;;;;;;;;5086248;28;20036;-78
2023/04/12 13:41:14;;;;;;;1.60;1.17;;;;;;;;;;5071664;28;20032;-78
2023/04/12 13:44:00;;;;;;;2.90;1.20;;;;;;;;;;5057150;28;20028;-78
2023/04/12 13:46:45;;;;;;;1.02;0.90;;;;;;;;;;5071582;28;20033;-69
2023/04/12 13:49:30;;;;;;;1.27;0.93;;;;;;;;;;5064130;28;20389;-70
2023/04/12 13:52:15;;;;;;;1.63;0.90;;;;;;;;;;5072166;28;20031;-70
2023/04/12 13:55:03;;;;;;;2.08;0.95;;;;;;;;;;5064150;28;20024;-71
2023/04/12 13:57:48;;;;;;;1.92;0.80;;;;;;;;;;5070648;28;20484;-72
2023/04/12 14:00:33;;;;;;;1.75;0.90;;;;;;;;;;5072189;28;20024;-80
2023/04/12 14:03:19;;;;;;;1.27;1.05;;;;;;;;;;5063310;28;20503;-81
2023/04/12 14:06:06;;;;;;;1.50;0.90;;;;;;;;;;5068947;28;20041;-80
2023/04/12 14:08:51;;;;;;;2.45;0.90;;;;;;;;;;5066110;28;20387;-81
2023/04/12 14:11:46;;;;;;;2.55;1.20;;;;;;;;;;5069780;28;20040;-80
2023/04/12 14:14:31;;;;;;;4.07;1.23;;;;;;;;;;5071444;28;20063;-80
2023/04/12 14:17:16;;;;;;;2.42;0.80;;;;;;;;;;5065095;28;20023;-79
2023/04/12 14:20:05;;;;;;;1.05;0.80;;;;;;;;;;5062891;28;20115;-75
2023/04/12 14:22:50;;;;;;;0.93;0.70;;;;;;;;;;5070859;28;20628;-75
2023/04/12 14:25:38;;;;;;;1.63;0.82;;;;;;;;;;5071130;28;20024;-75
2023/04/12 14:28:29;;;;;;;1.52;0.98;;;;;;;;;;5069946;28;20105;-75
2023/04/12 14:31:15;;;;;;;1.85;0.80;;;;;;;;;;5052507;28;20036;-75
2023/04/12 14:34:03;;;;;;;2.88;0.85;;;;;;;;;;5059565;28;20395;-75
2023/04/12 14:36:49;;;;;;;2.90;1.00;;;;;;;;;;5069213;28;20028;-72
2023/04/12 14:39:34;;;;;;;2.53;0.90;;;;;;;;;;5070587;28;20021;-77
2023/04/12 14:42:20;;;;;;;3.25;1.10;;;;;;;;;;5070518;28;20024;-71
2023/04/12 14:45:06;;;;;;;3.63;1.25;;;;;;;;;;5066334;28;20036;-72
2023/04/12 14:47:52;;;;;;;1.00;0.90;;;;;;;;;;5061430;28;20036;-72
2023/04/12 14:50:38;;;;;;;3.45;0.85;;;;;;;;;;5056476;28;20032;-72
2023/04/12 14:53:23;;;;;;;1.58;1.08;;;;;;;;;;5061748;28;20119;-72
2023/04/12 14:56:21;;;;;;;1.42;0.90;;;;;;;;;;5066233;28;20508;-73
2023/04/12 14:59:06;;;;;;;2.22;0.90;;;;;;;;;;5070284;28;20040;-79
2023/04/12 15:01:52;;;;;;;3.60;1.63;;;;;;;;;;5069489;28;20021;-79
2023/04/12 15:04:37;;;;;;;1.42;0.90;;;;;;;;;;5068475;28;20040;-78
2023/04/12 15:07:22;;;;;;;1.20;0.77;;;;;;;;;;5050912;28;20352;-82
2023/04/12 15:10:08;;;;;;;1.90;1.00;;;;;;;;;;5065457;28;20020;-80
2023/04/12 15:12:53;;;;;;;1.60;1.00;;;;;;;;;;5069818;28;20099;-78
2023/04/12 15:15:38;;;;;;;2.70;1.00;;;;;;;;;;5068571;28;20032;-78
2023/04/12 15:18:23;;;;;;;2.10;0.70;;;;;;;;;;5058613;28;20032;-75
2023/04/12 15:21:09;;;;;;;2.58;0.93;;;;;;;;;;5056564;28;20035;-75
2023/04/12 15:23:56;;;;;;;0.98;0.73;;;;;;;;;;5062008;28;20033;-74
2023/04/12 15:26:41;;;;;;;1.08;0.82;;;;;;;;;;5056570;28;20036;-74
2023/04/12 15:29:26;;;;;;;2.55;1.05;;;;;;;;;;5051322;28;20025;-73
2023/04/12 15:32:12;;;;;;;1.00;0.80;;;;;;;;;;5055995;28;20103;-79
2023/04/12 15:34:57;;;;;;;1.00;0.90;;;;;;;;;;5054501;28;20384;-70
2023/04/12 15:37:42;;;;;;;2.55;0.73;;;;;;;;;;5069800;28;20052;-73
2023/04/12 15:40:28;;;;;;;2.78;0.70;;;;;;;;;;5069366;28;20032;-73
2023/04/12 15:43:13;;;;;;;1.10;0.63;;;;;;;;;;5051807;28;20056;-73
2023/04/12 15:46:00;;;;;;;1.10;0.70;;;;;;;;;;5060233;28;20039;-75
2023/04/12 15:48:45;;;;;;;0.57;0.57;;;;;;;;;;5052911;28;20033;-77
2023/04/12 15:51:31;;;;;;;2.85;0.70;;;;;;;;;;5058930;28;20021;-74
2023/04/12 15:54:16;;;;;;;0.50;0.50;;;;;;;;;;5058334;28;20063;-71
2023/04/12 15:57:08;;;;;;;0.70;0.70;;;;;;;;;;5057111;28;20024;-71
2023/04/12 15:59:54;;;;;;;0.60;0.60;;;;;;;;;;5050767;28;20028;-72
2023/04/12 16:02:48;;;;;;;0.60;0.60;;;;;;;;;;5056615;28;20064;-70
2023/04/12 16:05:33;;;;;;;0.70;0.60;;;;;;;;;;5058122;28;20067;-72
2023/04/12 16:08:19;;;;;;;1.33;0.70;;;;;;;;;;5054685;28;20135;-73
2023/04/12 16:11:04;;;;;;;0.88;0.60;;;;;;;;;;5062867;28;20029;-74
2023/04/12 16:13:50;;;;;;;0.73;0.60;;;;;;;;;;5061207;28;20111;-71
2023/04/12 16:16:38;;;;;;;0.70;0.70;;;;;;;;;;5055062;28;20036;-73
2023/04/12 16:19:24;;;;;;;1.15;0.75;;;;;;;;;;5053355;28;20047;-73
2023/04/12 16:22:09;;;;;;;1.00;0.80;;;;;;;;;;5054000;28;20031;-74
2023/04/12 16:24:55;;;;;;;2.63;0.80;;;;;;;;;;5051593;28;20116;-73
2023/04/12 16:27:40;;;;;;;1.80;0.80;;;;;;;;;;5056070;28;20116;-71
2023/04/12 16:30:26;;;;;;;2.15;0.70;;;;;;;;;;5053937;28;20383;-80
2023/04/12 16:33:11;;;;;;;0.95;0.68;;;;;;;;;;5057383;28;20028;-78
2023/04/12 16:35:57;;;;;;;0.77;0.70;;;;;;;;;;5055205;28;20024;-80
2023/04/12 16:38:44;;;;;;;0.50;0.50;;;;;;;;;;5058063;28;20130;-76